sensor_id;sensor_type;location;lat;lon;timestamp;P1;durP1;ratioP1;P2;durP2;ratioP2
77775;SDS011;73554;43.328;6.668;2024-02-21T00:00:20;6.43;;;4.27;;
77775;SDS011;73554;43.328;6.668;2024-02-21T00:02:45;8.07;;;4.97;;
77775;SDS011;73554;43.328;6.668;2024-02-21T00:05:10;7.67;;;4.20;;
77775;SDS011;73554;43.328;6.668;2024-02-21T00:07:36;7.27;;;4.20;;
77775;SDS011;73554;43.328;6.668;2024-02-21T00:10:01;7.07;;;4.10;;
77775;SDS011;73554;43.328;6.668;2024-02-21T00:12:26;8.27;;;4.37;;
77775;SDS011;73554;43.328;6.668;2024-02-21T00:14:51;7.03;;;4.07;;
77775;SDS011;73554;43.328;6.668;2024-02-21T00:17:17;6.17;;;4.07;;
77775;SDS011;73554;43.328;6.668;2024-02-21T00:19:42;7.13;;;4.43;;
77775;SDS011;73554;43.328;6.668;2024-02-21T00:22:07;6.20;;;3.73;;
77775;SDS011;73554;43.328;6.668;2024-02-21T00:24:33;7.38;;;4.15;;
77775;SDS011;73554;43.328;6.668;2024-02-21T00:26:58;5.77;;;3.83;;
77775;SDS011;73554;43.328;6.668;2024-02-21T00:29:23;6.50;;;4.93;;
77775;SDS011;73554;43.328;6.668;2024-02-21T00:31:49;6.67;;;3.60;;
77775;SDS011;73554;43.328;6.668;2024-02-21T00:34:14;7.57;;;3.97;;
77775;SDS011;73554;43.328;6.668;2024-02-21T00:36:39;5.63;;;3.50;;
77775;SDS011;73554;43.328;6.668;2024-02-21T00:39:05;7.43;;;4.10;;
77775;SDS011;73554;43.328;6.668;2024-02-21T00:41:30;6.80;;;4.00;;
77775;SDS011;73554;43.328;6.668;2024-02-21T00:43:55;6.77;;;4.03;;
77775;SDS011;73554;43.328;6.668;2024-02-21T00:46:20;6.10;;;3.57;;
77775;SDS011;73554;43.328;6.668;2024-02-21T00:48:46;6.60;;;3.47;;
77775;SDS011;73554;43.328;6.668;2024-02-21T00:51:11;6.70;;;3.07;;
77775;SDS011;73554;43.328;6.668;2024-02-21T00:53:38;7.70;;;3.38;;
77775;SDS011;73554;43.328;6.668;2024-02-21T00:56:04;6.25;;;3.55;;
77775;SDS011;73554;43.328;6.668;2024-02-21T00:58:30;7.13;;;3.25;;
77775;SDS011;73554;43.328;6.668;2024-02-21T01:00:55;4.77;;;2.60;;
77775;SDS011;73554;43.328;6.668;2024-02-21T01:03:20;6.17;;;3.03;;
77775;SDS011;73554;43.328;6.668;2024-02-21T01:05:46;4.70;;;2.67;;
77775;SDS011;73554;43.328;6.668;2024-02-21T01:08:11;6.90;;;2.83;;
77775;SDS011;73554;43.328;6.668;2024-02-21T01:10:36;7.17;;;3.27;;
77775;SDS011;73554;43.328;6.668;2024-02-21T01:13:02;4.93;;;3.00;;
77775;SDS011;73554;43.328;6.668;2024-02-21T01:15:27;5.57;;;3.17;;
77775;SDS011;73554;43.328;6.668;2024-02-21T01:17:52;5.53;;;2.53;;
77775;SDS011;73554;43.328;6.668;2024-02-21T01:20:20;5.90;;;3.03;;
77775;SDS011;73554;43.328;6.668;2024-02-21T01:22:45;6.22;;;2.95;;
77775;SDS011;73554;43.328;6.668;2024-02-21T01:25:10;5.27;;;3.10;;
77775;SDS011;73554;43.328;6.668;2024-02-21T01:27:36;6.30;;;3.50;;
77775;SDS011;73554;43.328;6.668;2024-02-21T01:30:01;5.07;;;2.73;;
77775;SDS011;73554;43.328;6.668;2024-02-21T01:32:26;5.30;;;2.43;;
77775;SDS011;73554;43.328;6.668;2024-02-21T01:34:52;5.97;;;2.97;;
77775;SDS011;73554;43.328;6.668;2024-02-21T01:37:17;4.60;;;2.40;;
77775;SDS011;73554;43.328;6.668;2024-02-21T01:39:42;5.30;;;2.60;;
77775;SDS011;73554;43.328;6.668;2024-02-21T01:42:07;4.33;;;2.33;;
77775;SDS011;73554;43.328;6.668;2024-02-21T01:44:36;5.40;;;2.42;;
77775;SDS011;73554;43.328;6.668;2024-02-21T01:47:03;4.18;;;2.25;;
77775;SDS011;73554;43.328;6.668;2024-02-21T01:49:28;4.78;;;2.30;;
77775;SDS011;73554;43.328;6.668;2024-02-21T01:51:53;4.47;;;2.07;;
77775;SDS011;73554;43.328;6.668;2024-02-21T01:54:19;4.65;;;2.20;;
77775;SDS011;73554;43.328;6.668;2024-02-21T01:56:44;5.63;;;2.60;;
77775;SDS011;73554;43.328;6.668;2024-02-21T01:59:11;4.43;;;2.33;;
77775;SDS011;73554;43.328;6.668;2024-02-21T02:01:37;4.68;;;2.53;;
77775;SDS011;73554;43.328;6.668;2024-02-21T02:04:02;4.80;;;2.27;;
77775;SDS011;73554;43.328;6.668;2024-02-21T02:06:30;5.22;;;2.38;;
77775;SDS011;73554;43.328;6.668;2024-02-21T02:08:55;5.25;;;2.28;;
77775;SDS011;73554;43.328;6.668;2024-02-21T02:11:21;5.32;;;2.47;;
77775;SDS011;73554;43.328;6.668;2024-02-21T02:13:47;5.03;;;2.40;;
77775;SDS011;73554;43.328;6.668;2024-02-21T02:16:12;4.90;;;2.50;;
77775;SDS011;73554;43.328;6.668;2024-02-21T02:18:37;5.27;;;2.20;;
77775;SDS011;73554;43.328;6.668;2024-02-21T02:21:08;4.57;;;2.57;;
77775;SDS011;73554;43.328;6.668;2024-02-21T02:23:35;4.32;;;2.25;;
77775;SDS011;73554;43.328;6.668;2024-02-21T02:26:01;6.10;;;2.37;;
77775;SDS011;73554;43.328;6.668;2024-02-21T02:28:26;5.50;;;2.47;;
77775;SDS011;73554;43.328;6.668;2024-02-21T02:30:52;5.78;;;2.40;;
77775;SDS011;73554;43.328;6.668;2024-02-21T02:33:17;4.78;;;2.33;;
77775;SDS011;73554;43.328;6.668;2024-02-21T02:35:43;4.82;;;2.50;;
77775;SDS011;73554;43.328;6.668;2024-02-21T02:38:08;4.35;;;2.30;;
77775;SDS011;73554;43.328;6.668;2024-02-21T02:40:35;5.75;;;2.72;;
77775;SDS011;73554;43.328;6.668;2024-02-21T02:43:00;5.90;;;2.63;;
77775;SDS011;73554;43.328;6.668;2024-02-21T02:45:29;5.68;;;2.22;;
77775;SDS011;73554;43.328;6.668;2024-02-21T02:47:56;4.10;;;2.13;;
77775;SDS011;73554;43.328;6.668;2024-02-21T02:50:22;4.32;;;2.35;;
77775;SDS011;73554;43.328;6.668;2024-02-21T02:52:48;4.28;;;2.00;;
77775;SDS011;73554;43.328;6.668;2024-02-21T02:55:13;5.78;;;2.38;;
77775;SDS011;73554;43.328;6.668;2024-02-21T02:57:38;4.70;;;2.40;;
77775;SDS011;73554;43.328;6.668;2024-02-21T03:00:04;4.93;;;2.20;;
77775;SDS011;73554;43.328;6.668;2024-02-21T03:02:31;5.03;;;2.47;;
77775;SDS011;73554;43.328;6.668;2024-02-21T03:04:57;5.43;;;2.13;;
77775;SDS011;73554;43.328;6.668;2024-02-21T03:07:23;4.57;;;2.30;;
77775;SDS011;73554;43.328;6.668;2024-02-21T03:09:49;4.38;;;2.20;;
77775;SDS011;73554;43.328;6.668;2024-02-21T03:12:15;3.90;;;1.90;;
77775;SDS011;73554;43.328;6.668;2024-02-21T03:14:49;4.68;;;2.60;;
77775;SDS011;73554;43.328;6.668;2024-02-21T03:17:14;4.20;;;2.07;;
77775;SDS011;73554;43.328;6.668;2024-02-21T03:19:39;4.60;;;2.13;;
77775;SDS011;73554;43.328;6.668;2024-02-21T03:22:05;5.00;;;2.30;;
77775;SDS011;73554;43.328;6.668;2024-02-21T03:24:31;4.70;;;2.13;;
77775;SDS011;73554;43.328;6.668;2024-02-21T03:26:56;5.23;;;2.10;;
77775;SDS011;73554;43.328;6.668;2024-02-21T03:29:21;4.82;;;2.40;;
77775;SDS011;73554;43.328;6.668;2024-02-21T03:31:49;5.57;;;2.60;;
77775;SDS011;73554;43.328;6.668;2024-02-21T03:34:17;3.70;;;1.97;;
77775;SDS011;73554;43.328;6.668;2024-02-21T03:36:43;4.68;;;2.30;;
77775;SDS011;73554;43.328;6.668;2024-02-21T03:39:08;4.37;;;2.57;;
77775;SDS011;73554;43.328;6.668;2024-02-21T03:41:34;4.55;;;2.38;;
77775;SDS011;73554;43.328;6.668;2024-02-21T03:43:59;4.30;;;2.03;;
77775;SDS011;73554;43.328;6.668;2024-02-21T03:46:25;6.47;;;2.73;;
77775;SDS011;73554;43.328;6.668;2024-02-21T03:48:50;4.30;;;2.10;;
77775;SDS011;73554;43.328;6.668;2024-02-21T03:51:16;4.47;;;2.40;;
77775;SDS011;73554;43.328;6.668;2024-02-21T03:53:41;5.18;;;3.00;;
77775;SDS011;73554;43.328;6.668;2024-02-21T03:56:07;5.77;;;3.10;;
77775;SDS011;73554;43.328;6.668;2024-02-21T03:58:32;4.67;;;2.60;;
77775;SDS011;73554;43.328;6.668;2024-02-21T04:00:59;5.57;;;3.15;;
77775;SDS011;73554;43.328;6.668;2024-02-21T04:03:24;4.93;;;2.42;;
77775;SDS011;73554;43.328;6.668;2024-02-21T04:05:50;7.20;;;3.00;;
77775;SDS011;73554;43.328;6.668;2024-02-21T04:08:15;5.28;;;2.30;;
77775;SDS011;73554;43.328;6.668;2024-02-21T04:10:41;4.37;;;2.17;;
77775;SDS011;73554;43.328;6.668;2024-02-21T04:13:06;4.90;;;2.90;;
77775;SDS011;73554;43.328;6.668;2024-02-21T04:15:32;5.93;;;2.60;;
77775;SDS011;73554;43.328;6.668;2024-02-21T04:17:57;5.97;;;2.88;;
77775;SDS011;73554;43.328;6.668;2024-02-21T04:20:22;6.77;;;3.17;;
77775;SDS011;73554;43.328;6.668;2024-02-21T04:22:48;5.50;;;2.60;;
77775;SDS011;73554;43.328;6.668;2024-02-21T04:25:13;6.07;;;4.03;;
77775;SDS011;73554;43.328;6.668;2024-02-21T04:27:39;6.03;;;2.53;;
77775;SDS011;73554;43.328;6.668;2024-02-21T04:30:04;6.85;;;3.00;;
77775;SDS011;73554;43.328;6.668;2024-02-21T04:32:30;5.63;;;2.80;;
77775;SDS011;73554;43.328;6.668;2024-02-21T04:34:55;6.80;;;3.33;;
77775;SDS011;73554;43.328;6.668;2024-02-21T04:37:20;4.40;;;2.27;;
77775;SDS011;73554;43.328;6.668;2024-02-21T04:39:46;4.80;;;2.60;;
77775;SDS011;73554;43.328;6.668;2024-02-21T04:42:11;5.75;;;2.50;;
77775;SDS011;73554;43.328;6.668;2024-02-21T04:44:37;4.40;;;2.47;;
77775;SDS011;73554;43.328;6.668;2024-02-21T04:47:03;4.97;;;2.50;;
77775;SDS011;73554;43.328;6.668;2024-02-21T04:49:28;6.45;;;2.80;;
77775;SDS011;73554;43.328;6.668;2024-02-21T04:51:54;4.85;;;2.53;;
77775;SDS011;73554;43.328;6.668;2024-02-21T04:54:19;4.80;;;3.00;;
77775;SDS011;73554;43.328;6.668;2024-02-21T04:56:44;5.03;;;2.33;;
77775;SDS011;73554;43.328;6.668;2024-02-21T04:59:09;5.37;;;2.53;;
77775;SDS011;73554;43.328;6.668;2024-02-21T05:01:35;4.93;;;2.87;;
77775;SDS011;73554;43.328;6.668;2024-02-21T05:04:00;5.07;;;2.80;;
77775;SDS011;73554;43.328;6.668;2024-02-21T05:06:25;6.63;;;2.90;;
77775;SDS011;73554;43.328;6.668;2024-02-21T05:08:50;5.70;;;2.60;;
77775;SDS011;73554;43.328;6.668;2024-02-21T05:11:16;6.30;;;2.63;;
77775;SDS011;73554;43.328;6.668;2024-02-21T05:13:41;4.70;;;2.53;;
77775;SDS011;73554;43.328;6.668;2024-02-21T05:16:06;5.23;;;2.90;;
77775;SDS011;73554;43.328;6.668;2024-02-21T05:18:32;5.70;;;3.07;;
77775;SDS011;73554;43.328;6.668;2024-02-21T05:20:58;6.50;;;2.92;;
77775;SDS011;73554;43.328;6.668;2024-02-21T05:23:23;5.32;;;3.22;;
77775;SDS011;73554;43.328;6.668;2024-02-21T05:25:49;5.13;;;3.20;;
77775;SDS011;73554;43.328;6.668;2024-02-21T05:28:14;6.73;;;2.43;;
77775;SDS011;73554;43.328;6.668;2024-02-21T05:30:42;6.68;;;3.22;;
77775;SDS011;73554;43.328;6.668;2024-02-21T05:33:08;5.18;;;2.90;;
77775;SDS011;73554;43.328;6.668;2024-02-21T05:35:34;7.88;;;3.53;;
77775;SDS011;73554;43.328;6.668;2024-02-21T05:37:59;6.78;;;3.45;;
77775;SDS011;73554;43.328;6.668;2024-02-21T05:40:25;7.47;;;3.38;;
77775;SDS011;73554;43.328;6.668;2024-02-21T05:42:50;5.63;;;3.45;;
77775;SDS011;73554;43.328;6.668;2024-02-21T05:45:16;6.40;;;3.40;;
77775;SDS011;73554;43.328;6.668;2024-02-21T05:47:42;5.45;;;2.72;;
77775;SDS011;73554;43.328;6.668;2024-02-21T05:50:07;4.68;;;2.83;;
77775;SDS011;73554;43.328;6.668;2024-02-21T05:52:33;5.28;;;2.85;;
77775;SDS011;73554;43.328;6.668;2024-02-21T05:54:59;5.87;;;3.17;;
77775;SDS011;73554;43.328;6.668;2024-02-21T05:57:24;6.33;;;3.27;;
77775;SDS011;73554;43.328;6.668;2024-02-21T05:59:49;4.60;;;2.63;;
77775;SDS011;73554;43.328;6.668;2024-02-21T06:02:14;4.43;;;2.40;;
77775;SDS011;73554;43.328;6.668;2024-02-21T06:04:40;5.73;;;3.13;;
77775;SDS011;73554;43.328;6.668;2024-02-21T06:07:05;4.93;;;2.67;;
77775;SDS011;73554;43.328;6.668;2024-02-21T06:09:30;6.13;;;2.92;;
77775;SDS011;73554;43.328;6.668;2024-02-21T06:11:57;6.75;;;3.13;;
77775;SDS011;73554;43.328;6.668;2024-02-21T06:14:22;4.82;;;2.67;;
77775;SDS011;73554;43.328;6.668;2024-02-21T06:16:47;6.17;;;2.73;;
77775;SDS011;73554;43.328;6.668;2024-02-21T06:19:12;7.73;;;3.07;;
77775;SDS011;73554;43.328;6.668;2024-02-21T06:24:03;5.72;;;2.75;;
77775;SDS011;73554;43.328;6.668;2024-02-21T06:26:28;5.85;;;3.20;;
77775;SDS011;73554;43.328;6.668;2024-02-21T06:28:53;6.80;;;3.60;;
77775;SDS011;73554;43.328;6.668;2024-02-21T06:31:19;9.97;;;3.50;;
77775;SDS011;73554;43.328;6.668;2024-02-21T06:33:44;6.53;;;3.23;;
77775;SDS011;73554;43.328;6.668;2024-02-21T06:36:09;6.47;;;2.70;;
77775;SDS011;73554;43.328;6.668;2024-02-21T06:38:35;5.30;;;2.90;;
77775;SDS011;73554;43.328;6.668;2024-02-21T06:41:00;6.80;;;3.07;;
77775;SDS011;73554;43.328;6.668;2024-02-21T06:43:27;6.63;;;2.63;;
77775;SDS011;73554;43.328;6.668;2024-02-21T06:45:52;5.37;;;2.33;;
77775;SDS011;73554;43.328;6.668;2024-02-21T06:48:19;3.97;;;2.33;;
77775;SDS011;73554;43.328;6.668;2024-02-21T06:50:44;6.72;;;2.92;;
77775;SDS011;73554;43.328;6.668;2024-02-21T06:53:09;5.20;;;2.90;;
77775;SDS011;73554;43.328;6.668;2024-02-21T06:55:35;5.30;;;2.87;;
77775;SDS011;73554;43.328;6.668;2024-02-21T06:58:00;5.90;;;3.00;;
77775;SDS011;73554;43.328;6.668;2024-02-21T07:00:27;7.32;;;2.88;;
77775;SDS011;73554;43.328;6.668;2024-02-21T07:02:53;4.97;;;2.60;;
77775;SDS011;73554;43.328;6.668;2024-02-21T07:05:18;5.63;;;3.00;;
77775;SDS011;73554;43.328;6.668;2024-02-21T07:07:43;5.80;;;2.90;;
77775;SDS011;73554;43.328;6.668;2024-02-21T07:10:09;5.23;;;2.57;;
77775;SDS011;73554;43.328;6.668;2024-02-21T07:12:34;5.88;;;2.92;;
77775;SDS011;73554;43.328;6.668;2024-02-21T07:15:00;5.32;;;2.75;;
77775;SDS011;73554;43.328;6.668;2024-02-21T07:17:26;6.00;;;3.07;;
77775;SDS011;73554;43.328;6.668;2024-02-21T07:19:51;4.67;;;2.27;;
77775;SDS011;73554;43.328;6.668;2024-02-21T07:22:19;9.57;;;2.70;;
77775;SDS011;73554;43.328;6.668;2024-02-21T07:24:45;14.57;;;6.28;;
77775;SDS011;73554;43.328;6.668;2024-02-21T07:27:10;16.27;;;6.93;;
77775;SDS011;73554;43.328;6.668;2024-02-21T07:29:35;32.70;;;14.53;;
77775;SDS011;73554;43.328;6.668;2024-02-21T07:32:01;24.33;;;10.10;;
77775;SDS011;73554;43.328;6.668;2024-02-21T07:34:26;15.07;;;6.15;;
77775;SDS011;73554;43.328;6.668;2024-02-21T07:36:51;13.97;;;6.23;;
77775;SDS011;73554;43.328;6.668;2024-02-21T07:39:16;15.13;;;6.93;;
77775;SDS011;73554;43.328;6.668;2024-02-21T07:41:42;14.07;;;6.20;;
77775;SDS011;73554;43.328;6.668;2024-02-21T07:44:10;14.55;;;6.20;;
77775;SDS011;73554;43.328;6.668;2024-02-21T07:46:35;13.17;;;5.60;;
77775;SDS011;73554;43.328;6.668;2024-02-21T07:49:00;14.10;;;5.30;;
77775;SDS011;73554;43.328;6.668;2024-02-21T07:51:28;12.63;;;5.43;;
77775;SDS011;73554;43.328;6.668;2024-02-21T07:53:54;10.23;;;5.35;;
77775;SDS011;73554;43.328;6.668;2024-02-21T07:56:19;8.80;;;4.60;;
77775;SDS011;73554;43.328;6.668;2024-02-21T07:58:44;10.77;;;4.70;;
77775;SDS011;73554;43.328;6.668;2024-02-21T08:01:10;7.97;;;4.13;;
77775;SDS011;73554;43.328;6.668;2024-02-21T08:03:35;9.68;;;4.60;;
77775;SDS011;73554;43.328;6.668;2024-02-21T08:06:01;9.57;;;4.17;;
77775;SDS011;73554;43.328;6.668;2024-02-21T08:08:26;15.27;;;5.03;;
77775;SDS011;73554;43.328;6.668;2024-02-21T08:10:52;7.90;;;5.10;;
77775;SDS011;73554;43.328;6.668;2024-02-21T08:13:17;9.77;;;5.47;;
77775;SDS011;73554;43.328;6.668;2024-02-21T08:15:43;11.07;;;5.43;;
77775;SDS011;73554;43.328;6.668;2024-02-21T08:18:08;9.50;;;4.87;;
77775;SDS011;73554;43.328;6.668;2024-02-21T08:20:34;12.35;;;4.65;;
77775;SDS011;73554;43.328;6.668;2024-02-21T08:22:59;9.63;;;4.28;;
77775;SDS011;73554;43.328;6.668;2024-02-21T08:25:24;10.17;;;4.33;;
77775;SDS011;73554;43.328;6.668;2024-02-21T08:27:49;10.27;;;6.07;;
77775;SDS011;73554;43.328;6.668;2024-02-21T08:30:16;7.97;;;3.80;;
77775;SDS011;73554;43.328;6.668;2024-02-21T08:32:42;8.07;;;3.67;;
77775;SDS011;73554;43.328;6.668;2024-02-21T08:35:07;8.43;;;3.70;;
77775;SDS011;73554;43.328;6.668;2024-02-21T08:37:32;8.88;;;4.13;;
77775;SDS011;73554;43.328;6.668;2024-02-21T08:39:58;8.70;;;3.80;;
77775;SDS011;73554;43.328;6.668;2024-02-21T08:42:23;7.57;;;3.20;;
77775;SDS011;73554;43.328;6.668;2024-02-21T08:44:48;6.60;;;3.70;;
77775;SDS011;73554;43.328;6.668;2024-02-21T08:47:14;5.93;;;3.03;;
77775;SDS011;73554;43.328;6.668;2024-02-21T08:49:39;7.32;;;2.92;;
77775;SDS011;73554;43.328;6.668;2024-02-21T08:52:04;5.70;;;2.80;;
77775;SDS011;73554;43.328;6.668;2024-02-21T08:54:30;8.23;;;3.20;;
77775;SDS011;73554;43.328;6.668;2024-02-21T08:56:58;5.80;;;2.88;;
77775;SDS011;73554;43.328;6.668;2024-02-21T08:59:23;6.10;;;2.72;;
77775;SDS011;73554;43.328;6.668;2024-02-21T09:01:50;6.10;;;3.13;;
77775;SDS011;73554;43.328;6.668;2024-02-21T09:04:16;7.57;;;3.20;;
77775;SDS011;73554;43.328;6.668;2024-02-21T09:06:41;6.00;;;2.93;;
77775;SDS011;73554;43.328;6.668;2024-02-21T09:09:10;6.63;;;3.35;;
77775;SDS011;73554;43.328;6.668;2024-02-21T09:11:35;5.35;;;2.40;;
77775;SDS011;73554;43.328;6.668;2024-02-21T09:14:01;9.23;;;3.23;;
77775;SDS011;73554;43.328;6.668;2024-02-21T09:16:29;6.45;;;3.17;;
77775;SDS011;73554;43.328;6.668;2024-02-21T09:18:54;5.75;;;2.90;;
77775;SDS011;73554;43.328;6.668;2024-02-21T09:21:19;7.30;;;2.90;;
77775;SDS011;73554;43.328;6.668;2024-02-21T09:23:45;7.63;;;2.83;;
77775;SDS011;73554;43.328;6.668;2024-02-21T09:26:10;4.63;;;2.57;;
77775;SDS011;73554;43.328;6.668;2024-02-21T09:28:39;5.70;;;3.00;;
77775;SDS011;73554;43.328;6.668;2024-02-21T09:31:04;5.38;;;2.92;;
77775;SDS011;73554;43.328;6.668;2024-02-21T09:33:29;6.47;;;2.83;;
77775;SDS011;73554;43.328;6.668;2024-02-21T09:35:55;7.03;;;2.70;;
77775;SDS011;73554;43.328;6.668;2024-02-21T09:38:20;5.30;;;2.60;;
77775;SDS011;73554;43.328;6.668;2024-02-21T09:40:46;7.10;;;3.42;;
77775;SDS011;73554;43.328;6.668;2024-02-21T09:43:12;5.22;;;2.63;;
77775;SDS011;73554;43.328;6.668;2024-02-21T09:45:42;7.43;;;3.00;;
77775;SDS011;73554;43.328;6.668;2024-02-21T09:50:55;8.70;;;4.22;;
77775;SDS011;73554;43.328;6.668;2024-02-21T09:53:21;6.35;;;3.22;;
77775;SDS011;73554;43.328;6.668;2024-02-21T09:55:47;6.15;;;3.33;;
77775;SDS011;73554;43.328;6.668;2024-02-21T09:58:13;6.32;;;3.33;;
77775;SDS011;73554;43.328;6.668;2024-02-21T10:00:42;5.65;;;3.10;;
77775;SDS011;73554;43.328;6.668;2024-02-21T10:03:07;5.37;;;3.00;;
77775;SDS011;73554;43.328;6.668;2024-02-21T10:05:36;5.72;;;2.90;;
77775;SDS011;73554;43.328;6.668;2024-02-21T10:08:02;5.88;;;3.13;;
77775;SDS011;73554;43.328;6.668;2024-02-21T10:10:28;6.07;;;3.00;;
77775;SDS011;73554;43.328;6.668;2024-02-21T10:15:23;6.57;;;3.65;;
77775;SDS011;73554;43.328;6.668;2024-02-21T10:17:58;6.10;;;3.63;;
77775;SDS011;73554;43.328;6.668;2024-02-21T10:20:23;7.68;;;3.80;;
77775;SDS011;73554;43.328;6.668;2024-02-21T10:22:49;11.45;;;5.13;;
77775;SDS011;73554;43.328;6.668;2024-02-21T10:25:25;7.00;;;3.90;;
77775;SDS011;73554;43.328;6.668;2024-02-21T10:27:50;6.77;;;3.43;;
77775;SDS011;73554;43.328;6.668;2024-02-21T10:30:16;7.03;;;3.78;;
77775;SDS011;73554;43.328;6.668;2024-02-21T10:32:59;7.33;;;3.87;;
77775;SDS011;73554;43.328;6.668;2024-02-21T10:35:25;6.65;;;4.68;;
77775;SDS011;73554;43.328;6.668;2024-02-21T10:37:54;7.20;;;3.42;;
77775;SDS011;73554;43.328;6.668;2024-02-21T10:40:22;6.55;;;3.40;;
77775;SDS011;73554;43.328;6.668;2024-02-21T10:42:47;6.43;;;3.47;;
77775;SDS011;73554;43.328;6.668;2024-02-21T10:45:13;6.72;;;3.40;;
77775;SDS011;73554;43.328;6.668;2024-02-21T10:47:38;8.07;;;3.15;;
77775;SDS011;73554;43.328;6.668;2024-02-21T10:50:05;7.25;;;2.70;;
77775;SDS011;73554;43.328;6.668;2024-02-21T10:55:20;6.60;;;3.30;;
77775;SDS011;73554;43.328;6.668;2024-02-21T10:57:48;7.63;;;3.50;;
77775;SDS011;73554;43.328;6.668;2024-02-21T11:02:39;6.28;;;2.80;;
77775;SDS011;73554;43.328;6.668;2024-02-21T11:05:05;5.72;;;2.70;;
77775;SDS011;73554;43.328;6.668;2024-02-21T11:07:31;7.55;;;3.17;;
77775;SDS011;73554;43.328;6.668;2024-02-21T11:09:57;4.97;;;2.67;;
77775;SDS011;73554;43.328;6.668;2024-02-21T11:14:49;7.43;;;2.83;;
77775;SDS011;73554;43.328;6.668;2024-02-21T11:17:17;5.67;;;3.10;;
77775;SDS011;73554;43.328;6.668;2024-02-21T11:19:43;8.48;;;3.55;;
77775;SDS011;73554;43.328;6.668;2024-02-21T11:22:19;5.07;;;3.25;;
77775;SDS011;73554;43.328;6.668;2024-02-21T11:24:44;5.93;;;3.30;;
77775;SDS011;73554;43.328;6.668;2024-02-21T11:27:19;5.35;;;2.97;;
77775;SDS011;73554;43.328;6.668;2024-02-21T11:29:49;7.40;;;3.13;;
77775;SDS011;73554;43.328;6.668;2024-02-21T11:32:19;6.75;;;3.88;;
77775;SDS011;73554;43.328;6.668;2024-02-21T11:34:54;5.57;;;3.10;;
77775;SDS011;73554;43.328;6.668;2024-02-21T11:37:20;9.18;;;3.63;;
77775;SDS011;73554;43.328;6.668;2024-02-21T11:39:45;8.43;;;3.87;;
77775;SDS011;73554;43.328;6.668;2024-02-21T11:42:10;5.73;;;3.50;;
77775;SDS011;73554;43.328;6.668;2024-02-21T11:44:37;6.25;;;3.63;;
77775;SDS011;73554;43.328;6.668;2024-02-21T11:47:03;8.80;;;4.07;;
77775;SDS011;73554;43.328;6.668;2024-02-21T11:49:29;8.07;;;4.00;;
77775;SDS011;73554;43.328;6.668;2024-02-21T11:52:01;9.13;;;4.88;;
77775;SDS011;73554;43.328;6.668;2024-02-21T11:54:28;6.63;;;4.03;;
77775;SDS011;73554;43.328;6.668;2024-02-21T11:56:54;7.60;;;4.60;;
77775;SDS011;73554;43.328;6.668;2024-02-21T11:59:21;6.97;;;4.33;;
77775;SDS011;73554;43.328;6.668;2024-02-21T12:01:47;6.50;;;4.20;;
77775;SDS011;73554;43.328;6.668;2024-02-21T12:04:13;8.15;;;4.25;;
77775;SDS011;73554;43.328;6.668;2024-02-21T12:06:38;7.63;;;3.97;;
77775;SDS011;73554;43.328;6.668;2024-02-21T12:11:30;9.30;;;4.60;;
77775;SDS011;73554;43.328;6.668;2024-02-21T12:13:59;7.17;;;4.20;;
77775;SDS011;73554;43.328;6.668;2024-02-21T12:16:26;6.65;;;4.05;;
77775;SDS011;73554;43.328;6.668;2024-02-21T12:18:52;7.20;;;4.10;;
77775;SDS011;73554;43.328;6.668;2024-02-21T12:21:18;8.07;;;4.32;;
77775;SDS011;73554;43.328;6.668;2024-02-21T12:23:43;7.37;;;5.10;;
77775;SDS011;73554;43.328;6.668;2024-02-21T12:26:08;9.13;;;4.57;;
77775;SDS011;73554;43.328;6.668;2024-02-21T12:28:33;8.37;;;4.23;;
77775;SDS011;73554;43.328;6.668;2024-02-21T12:30:59;10.13;;;5.13;;
77775;SDS011;73554;43.328;6.668;2024-02-21T12:33:24;6.67;;;3.87;;
77775;SDS011;73554;43.328;6.668;2024-02-21T12:35:49;7.03;;;4.70;;
77775;SDS011;73554;43.328;6.668;2024-02-21T12:38:15;9.23;;;4.40;;
77775;SDS011;73554;43.328;6.668;2024-02-21T12:40:40;11.00;;;5.13;;
77775;SDS011;73554;43.328;6.668;2024-02-21T12:43:05;9.53;;;6.03;;
77775;SDS011;73554;43.328;6.668;2024-02-21T12:45:30;12.30;;;6.07;;
77775;SDS011;73554;43.328;6.668;2024-02-21T12:47:56;8.40;;;5.72;;
77775;SDS011;73554;43.328;6.668;2024-02-21T12:50:21;7.97;;;5.17;;
77775;SDS011;73554;43.328;6.668;2024-02-21T12:52:48;8.63;;;5.80;;
77775;SDS011;73554;43.328;6.668;2024-02-21T12:55:14;8.75;;;4.57;;
77775;SDS011;73554;43.328;6.668;2024-02-21T12:57:40;10.48;;;5.40;;
77775;SDS011;73554;43.328;6.668;2024-02-21T13:00:05;8.43;;;4.57;;
77775;SDS011;73554;43.328;6.668;2024-02-21T13:02:34;9.45;;;6.00;;
77775;SDS011;73554;43.328;6.668;2024-02-21T13:04:59;8.00;;;4.80;;
77775;SDS011;73554;43.328;6.668;2024-02-21T13:07:25;8.43;;;5.57;;
77775;SDS011;73554;43.328;6.668;2024-02-21T13:09:51;12.97;;;5.63;;
77775;SDS011;73554;43.328;6.668;2024-02-21T13:12:16;8.93;;;5.43;;
77775;SDS011;73554;43.328;6.668;2024-02-21T13:14:41;7.90;;;5.20;;
77775;SDS011;73554;43.328;6.668;2024-02-21T13:17:08;9.40;;;5.85;;
77775;SDS011;73554;43.328;6.668;2024-02-21T13:19:34;8.65;;;5.05;;
77775;SDS011;73554;43.328;6.668;2024-02-21T13:21:59;9.33;;;5.87;;
77775;SDS011;73554;43.328;6.668;2024-02-21T13:24:24;12.45;;;5.20;;
77775;SDS011;73554;43.328;6.668;2024-02-21T13:26:50;9.13;;;4.70;;
77775;SDS011;73554;43.328;6.668;2024-02-21T13:29:15;8.47;;;4.10;;
77775;SDS011;73554;43.328;6.668;2024-02-21T13:31:40;9.43;;;4.60;;
77775;SDS011;73554;43.328;6.668;2024-02-21T13:34:06;7.28;;;4.57;;
77775;SDS011;73554;43.328;6.668;2024-02-21T13:36:31;6.90;;;3.93;;
77775;SDS011;73554;43.328;6.668;2024-02-21T13:38:57;7.45;;;4.63;;
77775;SDS011;73554;43.328;6.668;2024-02-21T13:41:22;9.50;;;4.07;;
77775;SDS011;73554;43.328;6.668;2024-02-21T13:43:48;8.10;;;4.15;;
77775;SDS011;73554;43.328;6.668;2024-02-21T13:46:14;8.27;;;4.57;;
77775;SDS011;73554;43.328;6.668;2024-02-21T13:48:39;6.43;;;4.10;;
77775;SDS011;73554;43.328;6.668;2024-02-21T13:51:04;9.27;;;4.20;;
77775;SDS011;73554;43.328;6.668;2024-02-21T13:53:29;9.13;;;4.65;;
77775;SDS011;73554;43.328;6.668;2024-02-21T13:55:55;10.27;;;4.10;;
77775;SDS011;73554;43.328;6.668;2024-02-21T13:58:20;11.30;;;4.57;;
77775;SDS011;73554;43.328;6.668;2024-02-21T14:00:46;8.98;;;4.43;;
77775;SDS011;73554;43.328;6.668;2024-02-21T14:03:11;7.90;;;4.30;;
77775;SDS011;73554;43.328;6.668;2024-02-21T14:05:36;8.03;;;4.67;;
77775;SDS011;73554;43.328;6.668;2024-02-21T14:08:01;9.37;;;4.90;;
77775;SDS011;73554;43.328;6.668;2024-02-21T14:10:27;10.75;;;4.97;;
77775;SDS011;73554;43.328;6.668;2024-02-21T14:12:53;8.45;;;4.50;;
77775;SDS011;73554;43.328;6.668;2024-02-21T14:15:21;7.70;;;4.28;;
77775;SDS011;73554;43.328;6.668;2024-02-21T14:17:46;9.13;;;5.07;;
77775;SDS011;73554;43.328;6.668;2024-02-21T14:20:12;7.80;;;4.20;;
77775;SDS011;73554;43.328;6.668;2024-02-21T14:22:39;11.30;;;4.35;;
77775;SDS011;73554;43.328;6.668;2024-02-21T14:25:04;8.10;;;3.88;;
77775;SDS011;73554;43.328;6.668;2024-02-21T14:27:30;6.82;;;3.13;;
77775;SDS011;73554;43.328;6.668;2024-02-21T14:29:56;9.95;;;3.65;;
77775;SDS011;73554;43.328;6.668;2024-02-21T14:32:21;6.73;;;3.70;;
77775;SDS011;73554;43.328;6.668;2024-02-21T14:34:46;8.87;;;4.90;;
77775;SDS011;73554;43.328;6.668;2024-02-21T14:37:12;5.55;;;3.28;;
77775;SDS011;73554;43.328;6.668;2024-02-21T14:39:37;7.77;;;3.90;;
77775;SDS011;73554;43.328;6.668;2024-02-21T14:42:02;10.68;;;3.70;;
77775;SDS011;73554;43.328;6.668;2024-02-21T14:44:28;7.78;;;2.72;;
77775;SDS011;73554;43.328;6.668;2024-02-21T14:46:53;9.13;;;3.30;;
77775;SDS011;73554;43.328;6.668;2024-02-21T14:49:18;7.87;;;3.30;;
77775;SDS011;73554;43.328;6.668;2024-02-21T14:51:47;8.98;;;3.30;;
77775;SDS011;73554;43.328;6.668;2024-02-21T14:54:12;8.23;;;3.37;;